createdAt,value
2023-03-06T00:00:25.290Z,3.70
2023-03-06T00:02:52.610Z,3.70
2023-03-06T00:05:19.809Z,3.60
2023-03-06T00:07:46.658Z,3.52
2023-03-06T00:10:18.733Z,3.43
2023-03-06T00:12:45.662Z,3.41
2023-03-06T00:15:14.046Z,3.51
2023-03-06T00:17:41.159Z,3.49
2023-03-06T00:20:09.628Z,3.51
2023-03-06T00:22:36.508Z,3.36
2023-03-06T00:25:03.328Z,3.34
2023-03-06T00:27:31.727Z,3.30
2023-03-06T00:30:01.297Z,3.24
2023-03-06T00:32:29.010Z,3.37
2023-03-06T00:34:56.893Z,3.34
2023-03-06T00:37:24.697Z,3.37
2023-03-06T00:39:52.374Z,3.36
2023-03-06T00:42:20.201Z,3.22
2023-03-06T00:44:47.335Z,3.14
2023-03-06T00:47:17.391Z,3.22
2023-03-06T00:49:45.227Z,3.24
2023-03-06T00:52:13.364Z,3.29
2023-03-06T00:54:40.715Z,3.38
2023-03-06T00:57:08.016Z,3.36
2023-03-06T00:59:35.085Z,3.24
2023-03-06T01:02:02.239Z,3.23
2023-03-06T01:04:29.301Z,3.22
2023-03-06T01:06:56.591Z,3.21
2023-03-06T01:09:24.626Z,3.21
2023-03-06T01:11:53.925Z,3.21
2023-03-06T01:14:20.916Z,3.20
2023-03-06T01:16:48.208Z,3.24
2023-03-06T01:19:17.983Z,3.19
2023-03-06T01:21:45.652Z,3.21
2023-03-06T01:24:12.444Z,3.19
2023-03-06T01:26:39.332Z,3.20
2023-03-06T01:29:06.527Z,3.17
2023-03-06T01:31:33.745Z,3.13
2023-03-06T01:34:00.694Z,3.07
2023-03-06T01:36:27.555Z,3.02
2023-03-06T01:38:54.352Z,2.94
2023-03-06T01:41:21.681Z,3.09
2023-03-06T01:43:49.249Z,3.12
2023-03-06T01:46:41.996Z,2.98
2023-03-06T01:49:16.998Z,2.92
2023-03-06T01:51:52.560Z,2.87
2023-03-06T01:54:26.919Z,2.80
2023-03-06T01:56:59.475Z,2.73
2023-03-06T01:59:27.572Z,2.64
2023-03-06T02:01:55.446Z,2.64
2023-03-06T02:04:22.417Z,2.71
2023-03-06T02:06:50.937Z,2.72
2023-03-06T02:09:17.840Z,2.74
2023-03-06T02:11:46.444Z,2.68
2023-03-06T02:14:15.821Z,2.65
2023-03-06T02:16:44.184Z,2.64
2023-03-06T02:19:47.994Z,2.61
2023-03-06T02:22:14.801Z,2.48
2023-03-06T02:24:53.447Z,2.50
2023-03-06T02:27:20.891Z,2.52
2023-03-06T02:29:49.398Z,2.61
2023-03-06T02:32:16.488Z,2.64
2023-03-06T02:34:53.633Z,2.61
2023-03-06T02:37:21.887Z,2.58
2023-03-06T02:39:55.333Z,2.66
2023-03-06T02:42:25.386Z,2.71
2023-03-06T02:44:55.344Z,2.72
2023-03-06T02:47:22.308Z,2.69
2023-03-06T02:49:49.477Z,2.70
2023-03-06T02:52:18.149Z,2.73
2023-03-06T02:54:45.085Z,2.74
2023-03-06T02:57:12.234Z,2.73
2023-03-06T02:59:39.287Z,2.68
2023-03-06T03:02:07.666Z,2.69
2023-03-06T03:04:34.995Z,2.70
2023-03-06T03:07:02.891Z,2.57
2023-03-06T03:09:36.888Z,2.59
2023-03-06T03:12:07.884Z,2.58
2023-03-06T03:14:35.431Z,2.75
2023-03-06T03:17:03.158Z,2.78
2023-03-06T03:19:30.159Z,2.89
2023-03-06T03:21:57.106Z,2.96
2023-03-06T03:24:24.722Z,3.04
2023-03-06T03:26:52.068Z,3.06
2023-03-06T03:29:20.716Z,3.08
2023-03-06T03:31:48.703Z,3.06
2023-03-06T03:34:16.278Z,3.09
2023-03-06T03:36:43.501Z,3.13
2023-03-06T03:39:12.026Z,3.17
2023-03-06T03:41:39.291Z,3.27
2023-03-06T03:44:08.622Z,3.27
2023-03-06T03:46:35.663Z,3.30
2023-03-06T03:49:04.562Z,3.34
2023-03-06T03:51:32.228Z,3.32
2023-03-06T03:53:59.843Z,3.33
2023-03-06T03:56:29.909Z,3.28
2023-03-06T03:59:09.116Z,3.32
2023-03-06T04:01:42.718Z,3.29
2023-03-06T04:04:09.656Z,3.29
2023-03-06T04:06:36.988Z,3.27
2023-03-06T04:09:04.981Z,3.21
2023-03-06T04:11:33.492Z,3.22
2023-03-06T04:14:00.892Z,3.30
2023-03-06T04:16:27.769Z,3.30
2023-03-06T04:18:55.520Z,3.24
2023-03-06T04:21:22.593Z,3.22
2023-03-06T04:23:49.388Z,3.18
2023-03-06T04:26:16.272Z,3.18
2023-03-06T04:28:43.345Z,3.18
2023-03-06T04:31:12.986Z,3.16
2023-03-06T04:33:40.197Z,3.15
2023-03-06T04:36:07.858Z,3.15
2023-03-06T04:38:34.737Z,3.17
2023-03-06T04:41:04.218Z,3.24
2023-03-06T04:43:31.285Z,3.21
2023-03-06T04:45:58.544Z,3.37
2023-03-06T04:48:25.469Z,3.23
2023-03-06T04:50:52.352Z,3.19
2023-03-06T04:53:21.423Z,3.19
2023-03-06T04:55:48.237Z,3.30
2023-03-06T04:58:15.968Z,3.24
2023-03-06T05:00:42.805Z,3.28
2023-03-06T05:03:09.870Z,3.17
2023-03-06T05:05:36.670Z,3.13
2023-03-06T05:08:03.696Z,3.19
2023-03-06T05:10:30.540Z,3.25
2023-03-06T05:12:57.437Z,3.13
2023-03-06T05:15:24.307Z,3.07
2023-03-06T05:17:52.346Z,3.16
2023-03-06T05:20:19.168Z,3.16
2023-03-06T05:22:45.970Z,3.18
2023-03-06T05:25:13.168Z,3.31
2023-03-06T05:27:42.098Z,3.29
2023-03-06T05:30:12.129Z,3.08
2023-03-06T05:32:39.149Z,3.20
2023-03-06T05:35:06.903Z,3.15
2023-03-06T05:37:34.178Z,3.21
2023-03-06T05:40:01.201Z,3.23
2023-03-06T05:42:30.978Z,3.22
2023-03-06T05:44:57.962Z,3.11
2023-03-06T05:47:24.782Z,3.05
2023-03-06T05:49:51.592Z,3.04
2023-03-06T05:52:18.428Z,3.15
2023-03-06T05:54:50.477Z,3.28
2023-03-06T05:57:20.030Z,3.38
2023-03-06T05:59:47.247Z,3.36
2023-03-06T06:02:14.113Z,3.39
2023-03-06T06:04:41.022Z,3.40
2023-03-06T06:07:07.937Z,3.37
2023-03-06T06:09:34.806Z,3.36
2023-03-06T06:12:03.794Z,3.49
2023-03-06T06:14:34.500Z,3.44
2023-03-06T06:17:01.582Z,3.51
2023-03-06T06:19:30.056Z,3.44
2023-03-06T06:21:57.816Z,3.48
2023-03-06T06:24:26.456Z,3.38
2023-03-06T06:26:55.377Z,3.44
2023-03-06T06:29:23.561Z,3.48
2023-03-06T06:31:51.514Z,3.52
2023-03-06T06:34:19.194Z,3.55
2023-03-06T06:36:46.469Z,3.53
2023-03-06T06:39:18.132Z,3.52
2023-03-06T06:41:59.803Z,3.50
2023-03-06T06:44:32.700Z,3.52
2023-03-06T06:47:21.773Z,3.46
2023-03-06T06:49:51.127Z,3.57
2023-03-06T06:52:19.002Z,3.76
2023-03-06T06:54:46.138Z,3.88
2023-03-06T06:57:13.384Z,3.92
2023-03-06T06:59:40.381Z,4.02
2023-03-06T07:02:07.419Z,4.05
2023-03-06T07:04:34.410Z,4.34
2023-03-06T07:07:01.592Z,4.28
2023-03-06T07:09:30.957Z,4.16
2023-03-06T07:11:58.114Z,4.23
2023-03-06T07:14:25.157Z,4.29
2023-03-06T07:16:52.119Z,4.29
2023-03-06T07:19:19.124Z,4.37
2023-03-06T07:21:46.042Z,4.10
2023-03-06T07:24:12.863Z,4.10
2023-03-06T07:26:39.842Z,3.93
2023-03-06T07:29:06.684Z,4.04
2023-03-06T07:31:33.613Z,3.94
2023-03-06T07:34:01.872Z,3.97
2023-03-06T07:36:29.982Z,4.15
2023-03-06T07:38:56.722Z,4.23
2023-03-06T07:41:23.666Z,4.31
2023-03-06T07:43:50.547Z,4.20
2023-03-06T07:46:17.893Z,4.31
2023-03-06T07:48:44.870Z,4.29
2023-03-06T07:51:20.506Z,4.67
2023-03-06T07:53:48.666Z,4.81
2023-03-06T07:56:15.640Z,5.19
2023-03-06T07:58:44.926Z,5.59
2023-03-06T08:01:14.494Z,5.76
2023-03-06T08:03:41.447Z,5.82
2023-03-06T08:06:10.063Z,5.92
2023-03-06T08:08:39.458Z,5.74
2023-03-06T08:11:07.754Z,5.68
2023-03-06T08:13:35.307Z,5.43
2023-03-06T08:16:02.799Z,5.83
2023-03-06T08:18:29.880Z,6.00
2023-03-06T08:21:08.763Z,5.60
2023-03-06T08:23:36.656Z,5.46
2023-03-06T08:26:13.054Z,5.72
2023-03-06T08:28:40.344Z,5.90
2023-03-06T08:31:11.461Z,5.65
2023-03-06T08:33:39.391Z,6.11
2023-03-06T08:36:06.704Z,5.84
2023-03-06T08:38:33.603Z,6.08
2023-03-06T08:41:00.474Z,5.75
2023-03-06T08:43:27.423Z,5.96
2023-03-06T08:46:00.932Z,6.33
2023-03-06T08:48:28.304Z,6.66
2023-03-06T08:50:55.369Z,7.01
2023-03-06T08:53:36.664Z,7.07
2023-03-06T08:56:16.056Z,6.55
2023-03-06T08:58:42.956Z,6.68
2023-03-06T09:01:18.968Z,6.81
2023-03-06T09:03:45.950Z,6.45
2023-03-06T09:06:13.448Z,6.60
2023-03-06T09:08:43.319Z,7.47
2023-03-06T09:11:14.787Z,7.76
2023-03-06T09:13:43.302Z,7.59
2023-03-06T09:16:11.279Z,7.61
2023-03-06T09:18:38.203Z,7.89
2023-03-06T09:21:06.268Z,7.98
2023-03-06T09:23:34.043Z,7.95
2023-03-06T09:26:02.204Z,8.12
2023-03-06T09:28:29.079Z,8.12
2023-03-06T09:30:56.153Z,8.43
2023-03-06T09:33:23.505Z,8.63
2023-03-06T09:35:53.751Z,7.88
2023-03-06T09:38:23.045Z,8.33
2023-03-06T09:41:04.575Z,8.10
2023-03-06T09:43:38.251Z,8.48
2023-03-06T09:46:31.324Z,8.48
2023-03-06T09:49:15.304Z,9.11
2023-03-06T09:52:00.669Z,8.92
2023-03-06T09:54:44.572Z,8.74
2023-03-06T09:57:25.397Z,8.96
2023-03-06T09:59:55.979Z,9.02
2023-03-06T10:02:38.742Z,8.74
2023-03-06T10:05:10.770Z,8.60
2023-03-06T10:07:45.386Z,8.85
2023-03-06T10:10:22.487Z,9.04
2023-03-06T10:13:04.265Z,9.26
2023-03-06T10:15:34.687Z,9.60
2023-03-06T10:18:03.346Z,9.44
2023-03-06T10:20:53.662Z,9.90
2023-03-06T10:24:05.625Z,10.06
2023-03-06T10:26:43.609Z,10.45
2023-03-06T10:29:14.140Z,9.92
2023-03-06T10:31:45.330Z,9.40
2023-03-06T10:34:23.059Z,9.74
2023-03-06T10:36:50.704Z,9.68
2023-03-06T10:39:20.652Z,9.54
2023-03-06T10:41:48.924Z,9.93
2023-03-06T10:44:16.122Z,10.19
2023-03-06T10:46:46.035Z,9.42
2023-03-06T10:49:21.762Z,9.65
2023-03-06T10:52:07.255Z,9.88
2023-03-06T10:54:40.343Z,9.96
2023-03-06T10:57:24.850Z,9.89
2023-03-06T10:59:54.966Z,10.52
2023-03-06T11:02:24.182Z,10.30
2023-03-06T11:04:55.605Z,9.70
2023-03-06T11:07:26.003Z,9.51
2023-03-06T11:09:58.685Z,10.10
2023-03-06T11:12:34.539Z,9.91
2023-03-06T11:15:10.270Z,10.32
2023-03-06T11:18:04.832Z,11.03
2023-03-06T11:20:51.466Z,11.19
2023-03-06T11:23:23.102Z,11.26
2023-03-06T11:26:18.008Z,11.42
2023-03-06T11:29:16.554Z,11.10
2023-03-06T11:31:48.297Z,10.87
2023-03-06T11:34:23.426Z,10.66
2023-03-06T11:36:55.642Z,10.69
2023-03-06T11:39:37.292Z,10.89
2023-03-06T11:42:21.963Z,10.80
2023-03-06T11:45:17.444Z,11.19
2023-03-06T11:47:53.492Z,11.36
2023-03-06T11:50:29.153Z,11.53
2023-03-06T11:53:05.505Z,11.79
2023-03-06T11:55:51.141Z,11.29
2023-03-06T11:58:29.748Z,11.56
2023-03-06T12:01:06.493Z,11.83
2023-03-06T12:03:52.194Z,11.80
2023-03-06T12:06:18.927Z,11.39
2023-03-06T12:08:48.608Z,11.54
2023-03-06T12:11:23.250Z,11.33
2023-03-06T12:14:14.254Z,11.05
2023-03-06T12:16:48.936Z,11.35
2023-03-06T12:20:10.000Z,10.98
2023-03-06T12:22:57.564Z,10.66
2023-03-06T12:25:26.803Z,10.29
2023-03-06T12:28:32.226Z,10.35
2023-03-06T12:31:04.898Z,10.35
2023-03-06T12:33:43.362Z,10.22
2023-03-06T12:39:45.725Z,10.50
2023-03-06T12:42:23.712Z,10.50
2023-03-06T12:44:56.397Z,10.50
2023-03-06T12:47:28.058Z,10.64
2023-03-06T12:50:03.297Z,10.05
2023-03-06T12:52:31.909Z,10.30
2023-03-06T12:55:01.370Z,10.57
2023-03-06T12:57:29.851Z,10.74
2023-03-06T12:59:56.664Z,10.75
2023-03-06T13:02:32.634Z,10.67
2023-03-06T13:05:20.926Z,10.42
2023-03-06T13:07:58.678Z,10.61
2023-03-06T13:10:33.868Z,10.76
2023-03-06T13:13:01.790Z,11.10
2023-03-06T13:15:45.956Z,11.10
2023-03-06T13:18:22.075Z,10.86
2023-03-06T13:20:51.012Z,11.46
2023-03-06T13:23:30.064Z,11.85
2023-03-06T13:25:59.903Z,11.99
2023-03-06T13:28:46.317Z,11.71
2023-03-06T13:31:33.509Z,12.01
2023-03-06T13:34:02.609Z,12.33
2023-03-06T13:36:34.486Z,11.98
2023-03-06T13:39:04.982Z,11.97
2023-03-06T13:41:31.795Z,12.27
2023-03-06T13:44:00.944Z,12.20
2023-03-06T13:46:31.319Z,12.12
2023-03-06T13:49:13.066Z,12.33
2023-03-06T13:51:43.682Z,12.15
2023-03-06T13:54:16.923Z,12.15
2023-03-06T13:57:02.643Z,11.60
2023-03-06T14:00:08.245Z,11.71
2023-03-06T14:02:55.382Z,11.79
2023-03-06T14:05:23.153Z,11.43
2023-03-06T14:08:23.966Z,11.56
2023-03-06T14:11:06.109Z,11.68
2023-03-06T14:13:47.833Z,11.82
2023-03-06T14:16:21.081Z,11.78
2023-03-06T14:18:50.699Z,11.95
2023-03-06T14:21:33.594Z,11.80
2023-03-06T14:24:03.115Z,11.94
2023-03-06T14:26:40.447Z,11.94
2023-03-06T14:29:21.250Z,12.22
2023-03-06T14:31:53.911Z,11.69
2023-03-06T14:34:37.337Z,11.73
2023-03-06T14:37:07.836Z,11.83
2023-03-06T14:39:36.719Z,11.59
2023-03-06T14:42:18.462Z,11.32
2023-03-06T14:44:49.933Z,11.03
2023-03-06T14:47:33.521Z,11.06
2023-03-06T14:50:25.321Z,10.99
2023-03-06T14:53:04.260Z,10.84
2023-03-06T14:55:35.108Z,10.77
2023-03-06T14:58:17.493Z,10.91
2023-03-06T15:00:49.683Z,10.93
2023-03-06T15:03:24.549Z,10.92
2023-03-06T15:05:52.034Z,10.92
2023-03-06T15:08:27.195Z,11.07
2023-03-06T15:10:57.012Z,11.08
2023-03-06T15:13:26.823Z,11.00
2023-03-06T15:16:04.714Z,11.18
2023-03-06T15:18:35.587Z,11.34
2023-03-06T15:21:36.332Z,11.36
2023-03-06T15:24:36.623Z,11.10
2023-03-06T15:27:06.010Z,11.18
2023-03-06T15:29:33.871Z,11.24
2023-03-06T15:32:33.682Z,11.31
2023-03-06T15:35:25.684Z,11.35
2023-03-06T15:37:52.922Z,11.30
2023-03-06T15:40:23.220Z,11.33
2023-03-06T15:42:50.250Z,11.31
2023-03-06T15:45:25.941Z,11.21
2023-03-06T15:47:54.605Z,11.45
2023-03-06T15:50:24.969Z,11.65
2023-03-06T15:52:52.197Z,11.73
2023-03-06T15:55:22.044Z,11.57
2023-03-06T15:57:55.243Z,11.71
2023-03-06T16:00:34.254Z,11.65
2023-03-06T16:03:03.148Z,11.43
2023-03-06T16:05:30.745Z,11.43
2023-03-06T16:07:57.613Z,11.32
2023-03-06T16:10:27.435Z,11.19
2023-03-06T16:12:57.066Z,11.02
2023-03-06T16:15:29.823Z,10.90
2023-03-06T16:17:57.734Z,10.76
2023-03-06T16:20:27.461Z,10.73
2023-03-06T16:22:55.039Z,10.71
2023-03-06T16:25:23.650Z,10.45
2023-03-06T16:27:58.156Z,10.34
2023-03-06T16:30:35.700Z,10.16
2023-03-06T16:33:03.712Z,10.07
2023-03-06T16:35:30.985Z,9.97
2023-03-06T16:37:58.851Z,9.91
2023-03-06T16:40:25.632Z,9.90
2023-03-06T16:42:55.022Z,9.89
2023-03-06T16:45:23.310Z,9.85
2023-03-06T16:47:50.759Z,9.78
2023-03-06T16:50:20.185Z,9.77
2023-03-06T16:52:47.009Z,9.80
2023-03-06T16:55:16.104Z,9.86
2023-03-06T16:57:43.001Z,9.74
2023-03-06T17:00:11.526Z,9.73
2023-03-06T17:02:38.964Z,9.79
2023-03-06T17:05:07.379Z,9.92
2023-03-06T17:07:35.825Z,9.83
2023-03-06T17:10:07.632Z,9.69
2023-03-06T17:12:34.632Z,9.63
2023-03-06T17:15:02.056Z,9.54
2023-03-06T17:17:30.543Z,9.40
2023-03-06T17:19:58.159Z,9.37
2023-03-06T17:22:25.365Z,9.45
2023-03-06T17:24:52.383Z,9.37
2023-03-06T17:27:21.116Z,9.43
2023-03-06T17:29:48.104Z,9.23
2023-03-06T17:32:14.996Z,9.06
2023-03-06T17:34:42.031Z,9.04
2023-03-06T17:37:08.949Z,9.07
2023-03-06T17:39:38.154Z,9.03
2023-03-06T17:42:06.690Z,9.02
2023-03-06T17:44:34.436Z,9.00
2023-03-06T17:47:02.920Z,8.86
2023-03-06T17:49:29.962Z,8.86
2023-03-06T17:51:59.847Z,8.74
2023-03-06T17:54:27.420Z,8.69
2023-03-06T17:56:54.293Z,8.71
2023-03-06T17:59:21.082Z,8.70
2023-03-06T18:01:48.080Z,8.58
2023-03-06T18:04:15.048Z,8.74
2023-03-06T18:06:42.022Z,8.81
2023-03-06T18:09:10.274Z,8.78
2023-03-06T18:11:37.520Z,8.73
2023-03-06T18:14:05.624Z,8.61
2023-03-06T18:16:32.834Z,8.53
2023-03-06T18:18:59.705Z,8.49
2023-03-06T18:21:26.799Z,8.54
2023-03-06T18:23:53.897Z,8.71
2023-03-06T18:26:23.847Z,8.89
2023-03-06T18:28:58.422Z,8.86
2023-03-06T18:31:28.564Z,8.91
2023-03-06T18:33:56.480Z,8.89
2023-03-06T18:36:25.354Z,8.91
2023-03-06T18:38:52.455Z,8.82
2023-03-06T18:41:20.886Z,8.79
2023-03-06T18:43:55.869Z,8.75
2023-03-06T18:46:23.588Z,8.74
2023-03-06T18:48:50.523Z,8.79
2023-03-06T18:51:19.474Z,8.91
2023-03-06T18:53:46.619Z,8.86
2023-03-06T18:56:18.851Z,8.84
2023-03-06T18:58:46.119Z,8.85
2023-03-06T19:01:13.117Z,8.83
2023-03-06T19:03:40.556Z,8.75
2023-03-06T19:06:12.838Z,8.71
2023-03-06T19:08:40.764Z,8.75
2023-03-06T19:11:11.076Z,8.67
2023-03-06T19:13:38.391Z,8.63
2023-03-06T19:16:05.820Z,8.67
2023-03-06T19:18:32.766Z,8.70
2023-03-06T19:21:10.970Z,8.71
2023-03-06T19:23:38.161Z,8.60
2023-03-06T19:26:06.069Z,8.65
2023-03-06T19:28:33.887Z,8.49
2023-03-06T19:31:07.013Z,8.56
2023-03-06T19:33:37.490Z,8.46
2023-03-06T19:36:10.830Z,8.66
2023-03-06T19:38:38.092Z,8.58
2023-03-06T19:41:05.790Z,8.68
2023-03-06T19:43:32.693Z,8.56
2023-03-06T19:46:00.826Z,8.48
2023-03-06T19:48:27.688Z,8.55
2023-03-06T19:50:54.468Z,8.44
2023-03-06T19:53:22.125Z,8.49
2023-03-06T19:55:49.143Z,8.32
2023-03-06T19:58:15.968Z,8.31
2023-03-06T20:00:43.210Z,8.29
2023-03-06T20:03:10.117Z,8.32
2023-03-06T20:05:37.003Z,8.32
2023-03-06T20:08:03.986Z,8.29
2023-03-06T20:10:30.751Z,8.42
2023-03-06T20:12:57.584Z,8.32
2023-03-06T20:15:24.548Z,8.19
2023-03-06T20:17:51.374Z,8.08
2023-03-06T20:20:18.276Z,8.07
2023-03-06T20:22:45.086Z,8.05
2023-03-06T20:25:11.926Z,8.10
2023-03-06T20:27:39.359Z,7.97
2023-03-06T20:30:08.128Z,7.93
2023-03-06T20:32:35.094Z,7.81
2023-03-06T20:35:02.059Z,7.66
2023-03-06T20:37:28.907Z,7.54
2023-03-06T20:39:56.017Z,7.60
2023-03-06T20:42:22.857Z,7.54
2023-03-06T20:44:49.695Z,7.52
2023-03-06T20:47:16.581Z,7.53
2023-03-06T20:49:43.408Z,7.70
2023-03-06T20:52:10.276Z,7.74
2023-03-06T20:54:37.493Z,7.74
2023-03-06T20:57:04.407Z,7.69
2023-03-06T20:59:31.335Z,7.76
2023-03-06T21:01:58.235Z,7.81
2023-03-06T21:04:25.382Z,7.78
2023-03-06T21:06:53.600Z,7.97
2023-03-06T21:09:20.508Z,7.98
2023-03-06T21:11:48.010Z,7.89
2023-03-06T21:14:15.575Z,7.75
2023-03-06T21:16:43.015Z,7.77
2023-03-06T21:19:10.302Z,7.66
2023-03-06T21:21:37.165Z,7.55
2023-03-06T21:24:04.097Z,7.48
2023-03-06T21:26:33.989Z,7.40
2023-03-06T21:29:01.895Z,7.29
2023-03-06T21:31:29.259Z,7.22
2023-03-06T21:33:56.624Z,7.35
2023-03-06T21:36:23.602Z,7.48
2023-03-06T21:38:52.333Z,7.32
2023-03-06T21:41:26.860Z,7.47
2023-03-06T21:43:57.259Z,7.39
2023-03-06T21:46:24.867Z,7.43
2023-03-06T21:48:51.910Z,7.30
2023-03-06T21:51:20.927Z,7.29
2023-03-06T21:53:48.648Z,7.32
2023-03-06T21:56:17.627Z,7.35
2023-03-06T21:58:45.018Z,7.33
2023-03-06T22:01:15.716Z,7.34
2023-03-06T22:03:42.808Z,7.32
2023-03-06T22:06:11.770Z,7.36
2023-03-06T22:08:39.340Z,7.57
2023-03-06T22:11:08.446Z,7.71
2023-03-06T22:13:36.146Z,7.84
2023-03-06T22:16:03.681Z,7.63
2023-03-06T22:18:30.721Z,7.33
2023-03-06T22:21:00.638Z,7.16
2023-03-06T22:23:27.452Z,7.06
2023-03-06T22:25:54.256Z,6.94
2023-03-06T22:28:21.088Z,6.92
2023-03-06T22:30:48.046Z,7.26
2023-03-06T22:33:14.926Z,7.24
2023-03-06T22:35:41.751Z,7.35
2023-03-06T22:38:08.735Z,7.25
2023-03-06T22:40:35.682Z,7.24
2023-03-06T22:43:02.598Z,7.15
2023-03-06T22:45:29.466Z,7.21
2023-03-06T22:48:05.566Z,7.00
2023-03-06T22:50:34.056Z,6.80
2023-03-06T22:53:01.421Z,6.81
2023-03-06T22:55:28.397Z,6.86
2023-03-06T22:57:55.793Z,6.82
2023-03-06T23:00:23.405Z,6.76
2023-03-06T23:02:50.284Z,6.74
2023-03-06T23:05:17.196Z,6.75
2023-03-06T23:07:47.203Z,6.78
2023-03-06T23:10:13.980Z,6.70
2023-03-06T23:12:59.841Z,6.59
2023-03-06T23:15:45.039Z,6.49
2023-03-06T23:18:30.916Z,6.42
2023-03-06T23:21:19.026Z,6.45
2023-03-06T23:24:05.632Z,6.50
2023-03-06T23:26:34.240Z,6.59
2023-03-06T23:29:01.714Z,6.69
2023-03-06T23:31:30.659Z,6.71
2023-03-06T23:33:59.285Z,6.76
2023-03-06T23:36:26.317Z,6.84
2023-03-06T23:38:53.594Z,6.98
2023-03-06T23:41:21.345Z,7.09
2023-03-06T23:43:48.726Z,7.07
2023-03-06T23:46:16.285Z,7.06
2023-03-06T23:48:43.867Z,7.04
2023-03-06T23:51:20.129Z,7.02
2023-03-06T23:53:48.025Z,7.00
2023-03-06T23:56:15.517Z,7.14
2023-03-06T23:58:42.639Z,7.01
